Montmorenci, South Carolina
Current Conditions -  °F | °C
As of 2:35 PM on Friday 21 Nov 2014 (Local Time) from KAIK Reporting Station
Clear Clear  
Wind Chill: 64°   Ceiling: Unl
Heat Index: 64°   Visibility: 10mi
Dew Point: 30°   Wind: 6mph
Humidity: 28%   Direction: 110°ESE
Pressure: 30.38"   Gusts: NA
Location:  33.53°N, 81.64°W
Report Text: KAIK 211935Z AUTO 11005KT 10SM CLR 18/M01 A3038 RMK AO2 PNO
Loading
Personal Weather Stations






























Interactive Weather Map New forecast layout! Learn more

10-Day Weather Forecast

Advertisements
Track Severe Weather on mobile